Aérodrome :
LOGIN :

S'inscrire | Disclaimer

   EN    FR    IT 

 










Légende :    VFR   VFR Marginal   IFR   IFR Intensif   IFR Très Intensif
Visi : 
Plafond : 
>= 8 km
>= 3000ft
5 à 8 km
1000 à 3000 ft
1500m à 5 km
500 à 1000 ft
800 à 1500m
200 à 500 ft
< 800m
< 200 ft
Symboles :   Orages  Brouillard  Fortes neiges  Fortes précipitations  Vent > 20 kt
SIGMETs :   Divers  Orages  Givrage  Turbulence  Onde Orograph.  Cendres Volcan.






- Altitude de l'aérodrome : 935 ft


EBFS - Florennes

DERNIER METAR :
  • 140055Z AUTO 16010KT 9999 FEW011/// BKN014/// BKN100/// 05/03 Q0997 GRN

METARs EXPIRÉS :
  • 140025Z AUTO 15012KT 9999 SCT010/// BKN014/// 05/03 Q0998 GRN
  • 132355Z AUTO 15014KT 9999 SCT010/// BKN013/// OVC017/// 05/03 Q0998 GRN
  • 132325Z AUTO 16012KT 9999 SCT010/// BKN013/// OVC016/// 05/03 Q0998 GRN
  • 132255Z AUTO 15009KT 9999 FEW008/// BKN011/// BKN014/// 05/04 Q0998 GRN
  • 132225Z AUTO 14008KT 9999 FEW007/// BKN009/// OVC011/// 05/04 Q0999 GRN
  • 132213Z AUTO 14007KT 9999 FEW006/// BKN009/// OVC011/// 05/04 Q0999 GRN

TAF TAF EBFS
Valide du 13 à 19h jusqu'au 14 à 07h UTC


131541Z 1319/1407 19010KT 9999 SCT015 BKN025
TEMPO 1319/1321 19015KT 5000 -SHRA SCT012 BKN020
BECMG 1320/1322 FEW005 SCT010 BKN015
PROB40
TEMPO 1321/1400 4000 BR FEW004 SCT005 BKN012
BECMG 1404/1405 15015KT FEW002 SCT004 BKN007
TEMPO 1404/1407 2000 -RADZ SCT002 BKN004



MET'MAP, la Météo Aéronautique d'un coup d'oeil ! - Copyright ORBIFLY Décembre 2007 - Disclaimer

ORBIFLY MET'MAP TEAM :

Programmation & Développement : Alexandra Zaïnal
Conception & Développement : Baudouin d'Aumeries
Co-Programmation & Développement : Marc-Olivier Méhu
Soutien technique & logistique : Manuel Goepfert

Contact : metmap@orbifly.com




SOURCES & CREDITS :

   NOAA